sensor_id;sensor_type;location;lat;lon;timestamp;pressure;altitude;pressure_sealevel;temperature
70831;BMP180;58451;51.550;7.208;2022-11-20T07:07:18;100360.80;;;-2.90
70831;BMP180;58451;51.550;7.208;2022-11-20T07:08:51;100361.40;;;-2.90
70831;BMP180;58451;51.550;7.208;2022-11-20T07:10:27;100363.40;;;-2.90
70831;BMP180;58451;51.550;7.208;2022-11-20T07:11:58;100362.60;;;-2.80
70831;BMP180;58451;51.550;7.208;2022-11-20T07:13:31;100362.20;;;-2.80
70831;BMP180;58451;51.550;7.208;2022-11-20T07:15:04;100362.60;;;-2.80
70831;BMP180;58451;51.550;7.208;2022-11-20T07:16:36;100368.80;;;-2.80
70831;BMP180;58451;51.550;7.208;2022-11-20T07:18:08;100360.40;;;-2.84
70831;BMP180;58451;51.550;7.208;2022-11-20T07:19:40;100368.20;;;-2.80
70831;BMP180;58451;51.550;7.208;2022-11-20T07:21:12;100371.60;;;-2.84
70831;BMP180;58451;51.550;7.208;2022-11-20T07:22:44;100372.40;;;-2.80
70831;BMP180;58451;51.550;7.208;2022-11-20T07:24:16;100373.20;;;-2.70
70831;BMP180;58451;51.550;7.208;2022-11-20T07:25:48;100378.00;;;-2.66
70831;BMP180;58451;51.550;7.208;2022-11-20T07:27:19;100378.40;;;-2.66
70831;BMP180;58451;51.550;7.208;2022-11-20T07:28:52;100376.20;;;-2.60
70831;BMP180;58451;51.550;7.208;2022-11-20T07:30:25;100384.40;;;-2.50
70831;BMP180;58451;51.550;7.208;2022-11-20T07:31:58;100382.60;;;-2.48
70831;BMP180;58451;51.550;7.208;2022-11-20T07:33:30;100387.40;;;-2.40
70831;BMP180;58451;51.550;7.208;2022-11-20T07:35:03;100391.20;;;-2.30
70831;BMP180;58451;51.550;7.208;2022-11-20T07:36:35;100387.00;;;-2.30
70831;BMP180;58451;51.550;7.208;2022-11-20T07:38:06;100386.80;;;-2.24
70831;BMP180;58451;51.550;7.208;2022-11-20T07:39:40;100390.60;;;-2.20
70831;BMP180;58451;51.550;7.208;2022-11-20T07:41:11;100386.60;;;-2.20
70831;BMP180;58451;51.550;7.208;2022-11-20T07:42:48;100380.20;;;-2.20
70831;BMP180;58451;51.550;7.208;2022-11-20T07:44:21;100377.80;;;-2.12
70831;BMP180;58451;51.550;7.208;2022-11-20T07:45:57;100377.80;;;-2.10
70831;BMP180;58451;51.550;7.208;2022-11-20T07:47:35;100381.60;;;-2.00
70831;BMP180;58451;51.550;7.208;2022-11-20T07:49:07;100374.40;;;-2.00
70831;BMP180;58451;51.550;7.208;2022-11-20T07:50:39;100372.80;;;-1.90
70831;BMP180;58451;51.550;7.208;2022-11-20T07:52:11;100376.20;;;-1.80
70831;BMP180;58451;51.550;7.208;2022-11-20T07:53:43;100377.80;;;-1.80
70831;BMP180;58451;51.550;7.208;2022-11-20T07:55:15;100378.20;;;-1.80
70831;BMP180;58451;51.550;7.208;2022-11-20T07:56:50;100374.60;;;-1.80
70831;BMP180;58451;51.550;7.208;2022-11-20T07:58:22;100378.80;;;-1.78
70831;BMP180;58451;51.550;7.208;2022-11-20T07:59:54;100378.00;;;-1.70
70831;BMP180;58451;51.550;7.208;2022-11-20T08:01:25;100380.80;;;-1.64
70831;BMP180;58451;51.550;7.208;2022-11-20T08:02:57;100381.80;;;-1.66
70831;BMP180;58451;51.550;7.208;2022-11-20T08:04:29;100376.00;;;-1.70
70831;BMP180;58451;51.550;7.208;2022-11-20T08:06:01;100373.00;;;-1.68
70831;BMP180;58451;51.550;7.208;2022-11-20T08:07:41;100378.00;;;-1.60
70831;BMP180;58451;51.550;7.208;2022-11-20T08:09:13;100376.80;;;-1.60
70831;BMP180;58451;51.550;7.208;2022-11-20T08:10:45;100373.20;;;-1.54
70831;BMP180;58451;51.550;7.208;2022-11-20T08:12:20;100368.60;;;-1.50
70831;BMP180;58451;51.550;7.208;2022-11-20T08:14:11;100365.20;;;-1.50
70831;BMP180;58451;51.550;7.208;2022-11-20T08:15:50;100363.20;;;-1.50
70831;BMP180;58451;51.550;7.208;2022-11-20T08:17:24;100366.40;;;-1.50
70831;BMP180;58451;51.550;7.208;2022-11-20T08:18:56;100365.40;;;-1.46
70831;BMP180;58451;51.550;7.208;2022-11-20T08:20:28;100363.60;;;-1.40
70831;BMP180;58451;51.550;7.208;2022-11-20T08:22:00;100362.00;;;-1.30
70831;BMP180;58451;51.550;7.208;2022-11-20T08:23:32;100365.00;;;-1.30
70831;BMP180;58451;51.550;7.208;2022-11-20T08:25:04;100361.60;;;-1.30
70831;BMP180;58451;51.550;7.208;2022-11-20T08:26:38;100367.00;;;-1.20
70831;BMP180;58451;51.550;7.208;2022-11-20T08:28:10;100364.20;;;-1.18
70831;BMP180;58451;51.550;7.208;2022-11-20T08:29:52;100364.80;;;-1.08
70831;BMP180;58451;51.550;7.208;2022-11-20T08:31:26;100372.60;;;-1.00
70831;BMP180;58451;51.550;7.208;2022-11-20T08:33:06;100373.40;;;-0.90
70831;BMP180;58451;51.550;7.208;2022-11-20T08:34:39;100369.20;;;-0.80
70831;BMP180;58451;51.550;7.208;2022-11-20T08:36:11;100371.60;;;-0.70
70831;BMP180;58451;51.550;7.208;2022-11-20T08:37:47;100368.40;;;-0.60
70831;BMP180;58451;51.550;7.208;2022-11-20T08:39:23;100362.60;;;-0.50
70831;BMP180;58451;51.550;7.208;2022-11-20T08:41:00;100360.60;;;-0.50
70831;BMP180;58451;51.550;7.208;2022-11-20T08:42:51;100367.00;;;-0.40
70831;BMP180;58451;51.550;7.208;2022-11-20T08:44:23;100364.00;;;-0.40
70831;BMP180;58451;51.550;7.208;2022-11-20T08:45:57;100370.40;;;-0.30
70831;BMP180;58451;51.550;7.208;2022-11-20T08:47:29;100367.40;;;-0.26
70831;BMP180;58451;51.550;7.208;2022-11-20T08:49:01;100367.20;;;-0.20
70831;BMP180;58451;51.550;7.208;2022-11-20T08:50:32;100356.20;;;-0.20
70831;BMP180;58451;51.550;7.208;2022-11-20T08:52:04;100359.60;;;-0.14
70831;BMP180;58451;51.550;7.208;2022-11-20T08:53:38;100355.60;;;-0.10
70831;BMP180;58451;51.550;7.208;2022-11-20T08:55:11;100357.20;;;0.00
70831;BMP180;58451;51.550;7.208;2022-11-20T08:56:43;100352.60;;;0.10
70831;BMP180;58451;51.550;7.208;2022-11-20T08:58:15;100352.20;;;0.20
70831;BMP180;58451;51.550;7.208;2022-11-20T08:59:46;100354.40;;;0.30
70831;BMP180;58451;51.550;7.208;2022-11-20T09:01:37;100361.60;;;0.40
70831;BMP180;58451;51.550;7.208;2022-11-20T09:03:09;100360.40;;;0.50
70831;BMP180;58451;51.550;7.208;2022-11-20T09:04:40;100361.40;;;0.60
70831;BMP180;58451;51.550;7.208;2022-11-20T09:06:13;100359.60;;;0.60
70831;BMP180;58451;51.550;7.208;2022-11-20T09:07:45;100359.00;;;0.70
70831;BMP180;58451;51.550;7.208;2022-11-20T09:09:17;100360.80;;;0.80
70831;BMP180;58451;51.550;7.208;2022-11-20T09:10:55;100359.60;;;0.80
70831;BMP180;58451;51.550;7.208;2022-11-20T09:12:27;100355.80;;;0.90
70831;BMP180;58451;51.550;7.208;2022-11-20T09:13:59;100363.40;;;1.00
70831;BMP180;58451;51.550;7.208;2022-11-20T09:15:32;100360.80;;;1.10
70831;BMP180;58451;51.550;7.208;2022-11-20T09:17:04;100356.00;;;1.20
70831;BMP180;58451;51.550;7.208;2022-11-20T09:18:36;100359.20;;;1.28
70831;BMP180;58451;51.550;7.208;2022-11-20T09:20:09;100359.20;;;1.30
70831;BMP180;58451;51.550;7.208;2022-11-20T09:21:41;100355.00;;;1.34
70831;BMP180;58451;51.550;7.208;2022-11-20T09:23:13;100354.40;;;1.40
70831;BMP180;58451;51.550;7.208;2022-11-20T09:24:44;100352.60;;;1.50
70831;BMP180;58451;51.550;7.208;2022-11-20T09:26:16;100356.20;;;1.50
70831;BMP180;58451;51.550;7.208;2022-11-20T09:27:54;100355.80;;;1.60
70831;BMP180;58451;51.550;7.208;2022-11-20T09:29:26;100352.00;;;1.60
70831;BMP180;58451;51.550;7.208;2022-11-20T09:30:59;100352.40;;;1.70
70831;BMP180;58451;51.550;7.208;2022-11-20T09:32:31;100346.20;;;1.80
70831;BMP180;58451;51.550;7.208;2022-11-20T09:34:03;100351.20;;;1.92
70831;BMP180;58451;51.550;7.208;2022-11-20T09:35:34;100350.40;;;2.10
70831;BMP180;58451;51.550;7.208;2022-11-20T09:37:06;100345.40;;;2.20
70831;BMP180;58451;51.550;7.208;2022-11-20T09:38:38;100338.20;;;2.30
70831;BMP180;58451;51.550;7.208;2022-11-20T09:41:15;100344.40;;;2.40
70831;BMP180;58451;51.550;7.208;2022-11-20T09:45:37;100337.40;;;2.60
70831;BMP180;58451;51.550;7.208;2022-11-20T09:49:31;100337.00;;;2.78
70831;BMP180;58451;51.550;7.208;2022-11-20T09:53:12;100333.40;;;2.90
70831;BMP180;58451;51.550;7.208;2022-11-20T09:54:48;100331.80;;;2.92
70831;BMP180;58451;51.550;7.208;2022-11-20T09:56:21;100332.20;;;2.90
70831;BMP180;58451;51.550;7.208;2022-11-20T09:57:54;100321.80;;;2.90
70831;BMP180;58451;51.550;7.208;2022-11-20T09:59:40;100325.00;;;2.90
70831;BMP180;58451;51.550;7.208;2022-11-20T10:01:20;100330.80;;;2.90
70831;BMP180;58451;51.550;7.208;2022-11-20T10:03:03;100328.20;;;3.00
70831;BMP180;58451;51.550;7.208;2022-11-20T10:04:44;100323.20;;;3.10
70831;BMP180;58451;51.550;7.208;2022-11-20T10:11:08;100318.20;;;3.20
70831;BMP180;58451;51.550;7.208;2022-11-20T10:13:08;100320.60;;;3.30
70831;BMP180;58451;51.550;7.208;2022-11-20T10:20:46;100327.80;;;3.50
70831;BMP180;58451;51.550;7.208;2022-11-20T10:29:45;100310.80;;;3.80
70831;BMP180;58451;51.550;7.208;2022-11-20T10:31:33;100306.20;;;3.92
70831;BMP180;58451;51.550;7.208;2022-11-20T10:33:21;100300.40;;;4.00
70831;BMP180;58451;51.550;7.208;2022-11-20T10:35:03;100303.00;;;4.10
70831;BMP180;58451;51.550;7.208;2022-11-20T10:36:45;100306.00;;;4.20
70831;BMP180;58451;51.550;7.208;2022-11-20T10:38:54;100302.40;;;4.20
70831;BMP180;58451;51.550;7.208;2022-11-20T10:40:56;100294.00;;;4.20
70831;BMP180;58451;51.550;7.208;2022-11-20T10:43:17;100285.60;;;4.30
70831;BMP180;58451;51.550;7.208;2022-11-20T10:45:04;100295.40;;;4.40
70831;BMP180;58451;51.550;7.208;2022-11-20T10:46:45;100292.60;;;4.40
70831;BMP180;58451;51.550;7.208;2022-11-20T10:48:26;100290.80;;;4.48
70831;BMP180;58451;51.550;7.208;2022-11-20T10:50:04;100300.40;;;4.60
70831;BMP180;58451;51.550;7.208;2022-11-20T10:52:32;100295.60;;;4.66
70831;BMP180;58451;51.550;7.208;2022-11-20T10:53:57;100285.40;;;4.70
70831;BMP180;58451;51.550;7.208;2022-11-20T10:55:53;100279.20;;;4.78
70831;BMP180;58451;51.550;7.208;2022-11-20T10:58:08;100285.40;;;4.80
70831;BMP180;58451;51.550;7.208;2022-11-20T11:00:04;100290.20;;;4.86
70831;BMP180;58451;51.550;7.208;2022-11-20T11:01:42;100288.80;;;4.86
70831;BMP180;58451;51.550;7.208;2022-11-20T11:03:27;100290.20;;;4.90
70831;BMP180;58451;51.550;7.208;2022-11-20T11:05:12;100287.60;;;4.90
70831;BMP180;58451;51.550;7.208;2022-11-20T11:06:48;100281.80;;;4.90
70831;BMP180;58451;51.550;7.208;2022-11-20T11:08:21;100283.60;;;4.90
70831;BMP180;58451;51.550;7.208;2022-11-20T11:09:56;100277.40;;;5.00
70831;BMP180;58451;51.550;7.208;2022-11-20T11:11:33;100275.00;;;5.04
70831;BMP180;58451;51.550;7.208;2022-11-20T11:13:05;100267.00;;;5.10
70831;BMP180;58451;51.550;7.208;2022-11-20T11:14:55;100269.20;;;5.16
70831;BMP180;58451;51.550;7.208;2022-11-20T11:16:27;100261.80;;;5.22
70831;BMP180;58451;51.550;7.208;2022-11-20T11:17:59;100263.20;;;5.20
70831;BMP180;58451;51.550;7.208;2022-11-20T11:19:31;100256.00;;;5.12
70831;BMP180;58451;51.550;7.208;2022-11-20T11:21:04;100254.60;;;5.10
70831;BMP180;58451;51.550;7.208;2022-11-20T11:23:04;100255.60;;;5.10
70831;BMP180;58451;51.550;7.208;2022-11-20T11:24:36;100253.00;;;5.10
70831;BMP180;58451;51.550;7.208;2022-11-20T11:26:23;100251.00;;;5.20
70831;BMP180;58451;51.550;7.208;2022-11-20T11:28:00;100244.80;;;5.24
70831;BMP180;58451;51.550;7.208;2022-11-20T11:29:33;100241.60;;;5.30
70831;BMP180;58451;51.550;7.208;2022-11-20T11:31:05;100244.20;;;5.30
70831;BMP180;58451;51.550;7.208;2022-11-20T11:32:36;100244.80;;;5.30
70831;BMP180;58451;51.550;7.208;2022-11-20T11:34:16;100243.80;;;5.30
70831;BMP180;58451;51.550;7.208;2022-11-20T11:35:55;100237.40;;;5.30
70831;BMP180;58451;51.550;7.208;2022-11-20T11:37:36;100235.40;;;5.40
70831;BMP180;58451;51.550;7.208;2022-11-20T11:39:16;100230.40;;;5.38
70831;BMP180;58451;51.550;7.208;2022-11-20T11:40:49;100223.00;;;5.40
70831;BMP180;58451;51.550;7.208;2022-11-20T11:42:24;100221.60;;;5.50
70831;BMP180;58451;51.550;7.208;2022-11-20T11:44:16;100220.20;;;5.50
70831;BMP180;58451;51.550;7.208;2022-11-20T11:46:35;100218.20;;;5.50
70831;BMP180;58451;51.550;7.208;2022-11-20T11:48:09;100222.00;;;5.60
70831;BMP180;58451;51.550;7.208;2022-11-20T11:49:41;100213.80;;;5.70
70831;BMP180;58451;51.550;7.208;2022-11-20T11:52:16;100209.20;;;5.70
70831;BMP180;58451;51.550;7.208;2022-11-20T11:53:50;100207.60;;;5.80
70831;BMP180;58451;51.550;7.208;2022-11-20T11:57:47;100197.20;;;5.90
70831;BMP180;58451;51.550;7.208;2022-11-20T11:59:48;100195.80;;;5.90
70831;BMP180;58451;51.550;7.208;2022-11-20T12:01:44;100193.40;;;5.98
70831;BMP180;58451;51.550;7.208;2022-11-20T12:03:38;100193.60;;;6.10
70831;BMP180;58451;51.550;7.208;2022-11-20T12:05:23;100193.80;;;6.20
70831;BMP180;58451;51.550;7.208;2022-11-20T12:07:08;100196.60;;;6.20
70831;BMP180;58451;51.550;7.208;2022-11-20T12:09:10;100195.00;;;6.20
70831;BMP180;58451;51.550;7.208;2022-11-20T12:11:00;100198.20;;;6.10
70831;BMP180;58451;51.550;7.208;2022-11-20T12:12:49;100193.40;;;6.00
70831;BMP180;58451;51.550;7.208;2022-11-20T12:14:42;100182.80;;;5.90
70831;BMP180;58451;51.550;7.208;2022-11-20T12:16:21;100183.60;;;5.80
70831;BMP180;58451;51.550;7.208;2022-11-20T12:17:54;100176.40;;;5.80
70831;BMP180;58451;51.550;7.208;2022-11-20T12:19:31;100174.40;;;5.70
70831;BMP180;58451;51.550;7.208;2022-11-20T12:23:33;100168.00;;;5.70
70831;BMP180;58451;51.550;7.208;2022-11-20T12:25:24;100159.60;;;5.80
70831;BMP180;58451;51.550;7.208;2022-11-20T12:27:33;100159.20;;;5.80
70831;BMP180;58451;51.550;7.208;2022-11-20T12:32:00;100164.20;;;5.90
70831;BMP180;58451;51.550;7.208;2022-11-20T12:46:49;100150.20;;;5.60
70831;BMP180;58451;51.550;7.208;2022-11-20T12:52:52;100141.60;;;5.40
70831;BMP180;58451;51.550;7.208;2022-11-20T12:58:39;100141.40;;;5.30
70831;BMP180;58451;51.550;7.208;2022-11-20T13:00:22;100136.00;;;5.20
70831;BMP180;58451;51.550;7.208;2022-11-20T13:50:15;100057.40;;;4.90
70831;BMP180;58451;51.550;7.208;2022-11-20T13:51:51;100056.20;;;4.90
70831;BMP180;58451;51.550;7.208;2022-11-20T13:56:05;100055.00;;;4.80
70831;BMP180;58451;51.550;7.208;2022-11-20T14:00:20;100061.00;;;4.82
70831;BMP180;58451;51.550;7.208;2022-11-20T14:01:53;100051.60;;;4.80
70831;BMP180;58451;51.550;7.208;2022-11-20T14:03:30;100040.00;;;4.80
70831;BMP180;58451;51.550;7.208;2022-11-20T14:05:24;100038.60;;;4.70
70831;BMP180;58451;51.550;7.208;2022-11-20T14:06:57;100039.60;;;4.70
70831;BMP180;58451;51.550;7.208;2022-11-20T14:08:46;100033.80;;;4.70
70831;BMP180;58451;51.550;7.208;2022-11-20T14:10:27;100023.60;;;4.70
70831;BMP180;58451;51.550;7.208;2022-11-20T14:12:15;100023.60;;;4.70
70831;BMP180;58451;51.550;7.208;2022-11-20T14:14:23;100020.40;;;4.70
70831;BMP180;58451;51.550;7.208;2022-11-20T14:15:58;100015.60;;;4.70
70831;BMP180;58451;51.550;7.208;2022-11-20T14:17:35;100007.00;;;4.66
70831;BMP180;58451;51.550;7.208;2022-11-20T14:19:29;100004.00;;;4.66
70831;BMP180;58451;51.550;7.208;2022-11-20T14:21:02;100006.20;;;4.60
70831;BMP180;58451;51.550;7.208;2022-11-20T14:22:35;100007.00;;;4.60
70831;BMP180;58451;51.550;7.208;2022-11-20T14:24:12;100005.00;;;4.60
70831;BMP180;58451;51.550;7.208;2022-11-20T14:25:45;100002.40;;;4.60
70831;BMP180;58451;51.550;7.208;2022-11-20T14:27:20;100002.60;;;4.60
70831;BMP180;58451;51.550;7.208;2022-11-20T14:28:53;99998.20;;;4.60
70831;BMP180;58451;51.550;7.208;2022-11-20T14:30:42;99989.20;;;4.60
70831;BMP180;58451;51.550;7.208;2022-11-20T14:32:22;99988.00;;;4.60
70831;BMP180;58451;51.550;7.208;2022-11-20T14:33:57;99980.40;;;4.56
70831;BMP180;58451;51.550;7.208;2022-11-20T14:35:40;99972.00;;;4.50
70831;BMP180;58451;51.550;7.208;2022-11-20T14:37:33;99966.20;;;4.50
70831;BMP180;58451;51.550;7.208;2022-11-20T14:39:12;99969.40;;;4.50
70831;BMP180;58451;51.550;7.208;2022-11-20T14:40:54;99966.80;;;4.50
70831;BMP180;58451;51.550;7.208;2022-11-20T14:42:28;99970.20;;;4.50
70831;BMP180;58451;51.550;7.208;2022-11-20T14:44:04;99968.80;;;4.50
70831;BMP180;58451;51.550;7.208;2022-11-20T14:45:39;99969.00;;;4.50
70831;BMP180;58451;51.550;7.208;2022-11-20T14:47:19;99962.40;;;4.50
70831;BMP180;58451;51.550;7.208;2022-11-20T14:49:00;99958.40;;;4.40
70831;BMP180;58451;51.550;7.208;2022-11-20T14:50:38;99951.60;;;4.40
70831;BMP180;58451;51.550;7.208;2022-11-20T14:52:20;99950.60;;;4.40
70831;BMP180;58451;51.550;7.208;2022-11-20T14:53:52;99951.00;;;4.40
70831;BMP180;58451;51.550;7.208;2022-11-20T14:55:37;99947.00;;;4.40
70831;BMP180;58451;51.550;7.208;2022-11-20T14:57:30;99946.60;;;4.40
70831;BMP180;58451;51.550;7.208;2022-11-20T14:59:03;99938.20;;;4.30
70831;BMP180;58451;51.550;7.208;2022-11-20T15:00:35;99936.60;;;4.30
70831;BMP180;58451;51.550;7.208;2022-11-20T15:02:13;99927.80;;;4.20
70831;BMP180;58451;51.550;7.208;2022-11-20T15:04:06;99926.80;;;4.20
70831;BMP180;58451;51.550;7.208;2022-11-20T15:05:50;99927.40;;;4.20
70831;BMP180;58451;51.550;7.208;2022-11-20T15:07:35;99925.00;;;4.20
70831;BMP180;58451;51.550;7.208;2022-11-20T15:09:14;99925.60;;;4.20
70831;BMP180;58451;51.550;7.208;2022-11-20T15:10:50;99926.40;;;4.20
70831;BMP180;58451;51.550;7.208;2022-11-20T15:12:29;99925.60;;;4.12
70831;BMP180;58451;51.550;7.208;2022-11-20T15:14:06;99924.00;;;4.10
70831;BMP180;58451;51.550;7.208;2022-11-20T15:15:52;99919.00;;;4.10
70831;BMP180;58451;51.550;7.208;2022-11-20T15:17:25;99915.20;;;4.00
70831;BMP180;58451;51.550;7.208;2022-11-20T15:18:57;99910.80;;;4.00
70831;BMP180;58451;51.550;7.208;2022-11-20T15:20:55;99906.60;;;4.00
70831;BMP180;58451;51.550;7.208;2022-11-20T15:22:30;99900.60;;;3.98
70831;BMP180;58451;51.550;7.208;2022-11-20T15:24:10;99897.40;;;3.94
70831;BMP180;58451;51.550;7.208;2022-11-20T15:25:47;99898.40;;;3.92
70831;BMP180;58451;51.550;7.208;2022-11-20T15:27:21;99892.20;;;3.98
70831;BMP180;58451;51.550;7.208;2022-11-20T15:28:53;99895.60;;;3.90
70831;BMP180;58451;51.550;7.208;2022-11-20T15:30:25;99895.20;;;3.92
70831;BMP180;58451;51.550;7.208;2022-11-20T15:31:58;99892.20;;;3.90
70831;BMP180;58451;51.550;7.208;2022-11-20T15:33:35;99889.80;;;3.90
70831;BMP180;58451;51.550;7.208;2022-11-20T15:35:07;99885.20;;;4.00
70831;BMP180;58451;51.550;7.208;2022-11-20T15:36:42;99883.40;;;4.00
70831;BMP180;58451;51.550;7.208;2022-11-20T15:38:17;99888.20;;;4.10
70831;BMP180;58451;51.550;7.208;2022-11-20T15:39:57;99887.40;;;4.06
70831;BMP180;58451;51.550;7.208;2022-11-20T15:41:30;99889.60;;;4.00
70831;BMP180;58451;51.550;7.208;2022-11-20T15:43:06;99879.60;;;4.00
70831;BMP180;58451;51.550;7.208;2022-11-20T15:44:49;99872.20;;;3.98
70831;BMP180;58451;51.550;7.208;2022-11-20T15:46:27;99872.40;;;3.90
70831;BMP180;58451;51.550;7.208;2022-11-20T15:48:02;99871.60;;;3.90
70831;BMP180;58451;51.550;7.208;2022-11-20T15:49:36;99865.80;;;3.90
70831;BMP180;58451;51.550;7.208;2022-11-20T15:51:37;99861.60;;;3.86
70831;BMP180;58451;51.550;7.208;2022-11-20T15:53:24;99860.20;;;3.90
70831;BMP180;58451;51.550;7.208;2022-11-20T15:54:56;99857.80;;;3.88
70831;BMP180;58451;51.550;7.208;2022-11-20T15:56:28;99848.20;;;3.90
70831;BMP180;58451;51.550;7.208;2022-11-20T15:58:02;99852.80;;;3.90
70831;BMP180;58451;51.550;7.208;2022-11-20T15:59:38;99842.00;;;3.92
70831;BMP180;58451;51.550;7.208;2022-11-20T16:01:17;99842.60;;;3.90
70831;BMP180;58451;51.550;7.208;2022-11-20T16:02:51;99835.00;;;3.90
70831;BMP180;58451;51.550;7.208;2022-11-20T16:04:23;99830.80;;;3.90
70831;BMP180;58451;51.550;7.208;2022-11-20T16:06:06;99827.20;;;3.90
70831;BMP180;58451;51.550;7.208;2022-11-20T16:07:50;99824.20;;;3.90
70831;BMP180;58451;51.550;7.208;2022-11-20T16:09:23;99823.40;;;3.90
70831;BMP180;58451;51.550;7.208;2022-11-20T16:11:04;99814.80;;;3.90
70831;BMP180;58451;51.550;7.208;2022-11-20T16:12:50;99811.80;;;3.80
70831;BMP180;58451;51.550;7.208;2022-11-20T16:14:43;99806.00;;;3.80
70831;BMP180;58451;51.550;7.208;2022-11-20T16:16:37;99806.00;;;3.80
70831;BMP180;58451;51.550;7.208;2022-11-20T16:18:16;99798.60;;;3.80
70831;BMP180;58451;51.550;7.208;2022-11-20T16:19:48;99800.00;;;3.80
70831;BMP180;58451;51.550;7.208;2022-11-20T16:21:20;99796.00;;;3.80
70831;BMP180;58451;51.550;7.208;2022-11-20T16:22:52;99798.40;;;3.80
70831;BMP180;58451;51.550;7.208;2022-11-20T16:24:24;99805.80;;;3.80
70831;BMP180;58451;51.550;7.208;2022-11-20T16:25:56;99800.60;;;3.80
70831;BMP180;58451;51.550;7.208;2022-11-20T16:27:28;99804.60;;;3.72
70831;BMP180;58451;51.550;7.208;2022-11-20T16:29:01;99806.00;;;3.70
70831;BMP180;58451;51.550;7.208;2022-11-20T16:30:34;99808.20;;;3.70
70831;BMP180;58451;51.550;7.208;2022-11-20T16:32:06;99802.00;;;3.70
70831;BMP180;58451;51.550;7.208;2022-11-20T16:33:39;99808.60;;;3.70
70831;BMP180;58451;51.550;7.208;2022-11-20T16:35:11;99808.60;;;3.70
70831;BMP180;58451;51.550;7.208;2022-11-20T16:36:44;99808.00;;;3.70
70831;BMP180;58451;51.550;7.208;2022-11-20T16:38:16;99806.60;;;3.70
70831;BMP180;58451;51.550;7.208;2022-11-20T16:39:48;99805.20;;;3.60
70831;BMP180;58451;51.550;7.208;2022-11-20T16:41:21;99800.40;;;3.60
70831;BMP180;58451;51.550;7.208;2022-11-20T16:42:53;99796.60;;;3.60
70831;BMP180;58451;51.550;7.208;2022-11-20T16:44:25;99799.80;;;3.60
70831;BMP180;58451;51.550;7.208;2022-11-20T16:45:57;99804.40;;;3.60
70831;BMP180;58451;51.550;7.208;2022-11-20T16:47:34;99797.80;;;3.60
70831;BMP180;58451;51.550;7.208;2022-11-20T16:49:13;99799.40;;;3.60
70831;BMP180;58451;51.550;7.208;2022-11-20T16:50:51;99791.20;;;3.60
70831;BMP180;58451;51.550;7.208;2022-11-20T16:52:23;99789.20;;;3.60
70831;BMP180;58451;51.550;7.208;2022-11-20T16:53:56;99791.60;;;3.60
70831;BMP180;58451;51.550;7.208;2022-11-20T16:55:28;99786.40;;;3.60
70831;BMP180;58451;51.550;7.208;2022-11-20T16:56:59;99785.60;;;3.60
70831;BMP180;58451;51.550;7.208;2022-11-20T16:58:31;99775.60;;;3.60
70831;BMP180;58451;51.550;7.208;2022-11-20T17:00:04;99778.20;;;3.60
70831;BMP180;58451;51.550;7.208;2022-11-20T17:01:36;99775.20;;;3.64
70831;BMP180;58451;51.550;7.208;2022-11-20T17:03:11;99774.20;;;3.70
70831;BMP180;58451;51.550;7.208;2022-11-20T17:04:44;99770.40;;;3.64
70831;BMP180;58451;51.550;7.208;2022-11-20T17:06:20;99768.20;;;3.62
70831;BMP180;58451;51.550;7.208;2022-11-20T17:07:52;99771.80;;;3.70
70831;BMP180;58451;51.550;7.208;2022-11-20T17:09:24;99764.60;;;3.70
70831;BMP180;58451;51.550;7.208;2022-11-20T17:11:07;99766.80;;;3.70
70831;BMP180;58451;51.550;7.208;2022-11-20T17:12:40;99760.80;;;3.70
70831;BMP180;58451;51.550;7.208;2022-11-20T17:14:14;99759.60;;;3.70
70831;BMP180;58451;51.550;7.208;2022-11-20T17:15:47;99755.80;;;3.70
70831;BMP180;58451;51.550;7.208;2022-11-20T17:17:18;99748.40;;;3.68
70831;BMP180;58451;51.550;7.208;2022-11-20T17:18:56;99751.80;;;3.60
70831;BMP180;58451;51.550;7.208;2022-11-20T17:20:35;99745.20;;;3.60
70831;BMP180;58451;51.550;7.208;2022-11-20T17:22:07;99743.00;;;3.60
70831;BMP180;58451;51.550;7.208;2022-11-20T17:23:41;99741.40;;;3.60
70831;BMP180;58451;51.550;7.208;2022-11-20T17:25:14;99735.00;;;3.58
70831;BMP180;58451;51.550;7.208;2022-11-20T17:26:48;99730.20;;;3.50
70831;BMP180;58451;51.550;7.208;2022-11-20T17:28:20;99726.60;;;3.50
70831;BMP180;58451;51.550;7.208;2022-11-20T17:29:51;99723.00;;;3.50
70831;BMP180;58451;51.550;7.208;2022-11-20T17:31:28;99716.00;;;3.44
70831;BMP180;58451;51.550;7.208;2022-11-20T17:33:00;99711.80;;;3.40
70831;BMP180;58451;51.550;7.208;2022-11-20T17:34:32;99710.20;;;3.40
70831;BMP180;58451;51.550;7.208;2022-11-20T17:36:08;99711.60;;;3.40
70831;BMP180;58451;51.550;7.208;2022-11-20T17:37:40;99704.20;;;3.40
70831;BMP180;58451;51.550;7.208;2022-11-20T17:39:14;99701.60;;;3.40
70831;BMP180;58451;51.550;7.208;2022-11-20T17:40:47;99696.20;;;3.40
70831;BMP180;58451;51.550;7.208;2022-11-20T17:42:19;99693.40;;;3.50
70831;BMP180;58451;51.550;7.208;2022-11-20T17:44:09;99689.40;;;3.50
70831;BMP180;58451;51.550;7.208;2022-11-20T17:45:42;99689.00;;;3.50
70831;BMP180;58451;51.550;7.208;2022-11-20T17:47:15;99681.00;;;3.50
70831;BMP180;58451;51.550;7.208;2022-11-20T17:48:48;99680.40;;;3.50
70831;BMP180;58451;51.550;7.208;2022-11-20T17:50:20;99671.40;;;3.56
70831;BMP180;58451;51.550;7.208;2022-11-20T17:51:52;99672.80;;;3.60
70831;BMP180;58451;51.550;7.208;2022-11-20T17:53:24;99666.80;;;3.60
70831;BMP180;58451;51.550;7.208;2022-11-20T17:54:56;99656.00;;;3.60
70831;BMP180;58451;51.550;7.208;2022-11-20T17:56:33;99656.00;;;3.70
70831;BMP180;58451;51.550;7.208;2022-11-20T17:58:27;99653.40;;;3.70
70831;BMP180;58451;51.550;7.208;2022-11-20T17:59:59;99647.20;;;3.70
70831;BMP180;58451;51.550;7.208;2022-11-20T18:01:32;99643.20;;;3.66
70831;BMP180;58451;51.550;7.208;2022-11-20T18:03:07;99643.40;;;3.68
70831;BMP180;58451;51.550;7.208;2022-11-20T18:04:39;99640.40;;;3.70
70831;BMP180;58451;51.550;7.208;2022-11-20T18:06:18;99637.20;;;3.70
70831;BMP180;58451;51.550;7.208;2022-11-20T18:07:54;99632.40;;;3.80
70831;BMP180;58451;51.550;7.208;2022-11-20T18:09:27;99624.00;;;3.80
70831;BMP180;58451;51.550;7.208;2022-11-20T18:10:58;99624.40;;;3.80
70831;BMP180;58451;51.550;7.208;2022-11-20T18:12:30;99619.60;;;3.84
70831;BMP180;58451;51.550;7.208;2022-11-20T18:14:05;99617.60;;;3.86
70831;BMP180;58451;51.550;7.208;2022-11-20T18:16:06;99611.60;;;3.80
70831;BMP180;58451;51.550;7.208;2022-11-20T18:17:38;99608.60;;;3.80
70831;BMP180;58451;51.550;7.208;2022-11-20T18:19:15;99603.40;;;3.80
70831;BMP180;58451;51.550;7.208;2022-11-20T18:20:52;99598.40;;;3.80